Elba, Alabama
Current Conditions -  °F | °C
As of 7:55 AM on Friday 24 Oct 2014 (Local Time) from KEDN Reporting Station
Clear Clear  
Wind Chill: 10°   Ceiling: Unl
Heat Index: 10°   Visibility: 10mi
Dew Point:   Wind: 3mph
Humidity: 82%   Direction: 350°N
Pressure: 30.08"   Gusts: NA
Location:  31.41°N, 86.07°W
Report Text: KEDN 241255Z AUTO 35003KT 10SM CLR 10/07 A3008 RMK AO2
Loading
Personal Weather Stations






























Interactive Weather Map
Tropical Storm Tracking
New forecast layout! Learn more

10-Day Weather Forecast

Advertisements
Track Severe Weather on mobile